createdAt,value
2023-04-11T00:00:45.178Z,9.98
2023-04-11T00:03:23.164Z,13.35
2023-04-11T00:05:56.474Z,16.55
2023-04-11T00:08:29.680Z,13.43
2023-04-11T00:11:02.351Z,11.10
2023-04-11T00:13:35.991Z,13.88
2023-04-11T00:16:09.512Z,15.25
2023-04-11T00:18:45.563Z,11.77
2023-04-11T00:21:18.328Z,11.43
2023-04-11T00:23:53.226Z,11.85
2023-04-11T00:26:26.473Z,11.55
2023-04-11T00:28:59.533Z,13.40
2023-04-11T00:31:32.873Z,14.75
2023-04-11T00:34:06.222Z,14.80
2023-04-11T00:36:41.484Z,15.70
2023-04-11T00:39:14.712Z,16.80
2023-04-11T00:41:47.667Z,17.55
2023-04-11T00:44:20.607Z,17.85
2023-04-11T00:46:53.311Z,18.77
2023-04-11T00:49:26.658Z,17.27
2023-04-11T00:52:03.133Z,15.18
2023-04-11T00:54:36.167Z,17.90
2023-04-11T00:57:08.789Z,19.48
2023-04-11T00:59:42.135Z,16.85
2023-04-11T01:02:14.914Z,18.52
2023-04-11T01:04:48.010Z,15.63
2023-04-11T01:07:21.937Z,17.35
2023-04-11T01:09:55.432Z,16.50
2023-04-11T01:12:28.745Z,17.25
2023-04-11T01:15:02.049Z,15.43
2023-04-11T01:17:34.809Z,15.50
2023-04-11T01:20:09.765Z,18.38
2023-04-11T01:22:43.455Z,15.60
2023-04-11T01:25:18.956Z,17.92
2023-04-11T01:27:51.561Z,16.42
2023-04-11T01:30:24.719Z,17.55
2023-04-11T01:32:57.456Z,16.38
2023-04-11T01:35:31.528Z,15.38
2023-04-11T01:38:05.163Z,15.30
2023-04-11T01:40:39.158Z,17.02
2023-04-11T01:43:12.804Z,16.80
2023-04-11T01:45:45.888Z,16.58
2023-04-11T01:48:18.638Z,16.20
2023-04-11T01:50:52.386Z,17.58
2023-04-11T01:53:25.001Z,18.05
2023-04-11T01:55:58.295Z,17.40
2023-04-11T01:58:31.202Z,16.92
2023-04-11T02:01:04.485Z,18.23
2023-04-11T02:03:37.339Z,16.27
2023-04-11T02:06:10.428Z,15.82
2023-04-11T02:08:43.714Z,15.52
2023-04-11T02:11:16.810Z,15.55
2023-04-11T02:13:50.702Z,16.98
2023-04-11T02:16:26.243Z,15.95
2023-04-11T02:18:58.864Z,17.77
2023-04-11T02:21:32.171Z,18.30
2023-04-11T02:24:04.811Z,17.85
2023-04-11T02:26:37.812Z,17.15
2023-04-11T02:29:10.485Z,16.83
2023-04-11T02:31:43.505Z,16.77
2023-04-11T02:34:16.240Z,16.02
2023-04-11T02:36:50.154Z,14.35
2023-04-11T02:39:26.453Z,15.57
2023-04-11T02:42:02.051Z,13.80
2023-04-11T02:44:34.691Z,15.57
2023-04-11T02:47:07.750Z,15.60
2023-04-11T02:49:44.533Z,15.30
2023-04-11T02:52:23.119Z,16.05
2023-04-11T02:54:55.828Z,16.15
2023-04-11T02:57:28.868Z,15.77
2023-04-11T03:00:03.873Z,15.38
2023-04-11T03:02:46.328Z,15.15
2023-04-11T03:05:19.472Z,14.73
2023-04-11T03:07:58.140Z,16.02
2023-04-11T03:10:33.490Z,13.98
2023-04-11T03:13:07.911Z,15.52
2023-04-11T03:15:40.892Z,15.35
2023-04-11T03:18:16.243Z,14.52
2023-04-11T03:20:52.683Z,15.10
2023-04-11T03:23:25.803Z,14.25
2023-04-11T03:26:00.744Z,16.27
2023-04-11T03:28:34.279Z,18.52
2023-04-11T03:31:07.259Z,17.90
2023-04-11T03:33:40.452Z,16.80
2023-04-11T03:36:13.151Z,15.38
2023-04-11T03:38:46.417Z,17.77
2023-04-11T03:41:19.988Z,16.77
2023-04-11T03:43:53.139Z,17.00
2023-04-11T03:46:26.935Z,16.08
2023-04-11T03:49:00.214Z,15.93
2023-04-11T03:51:33.136Z,16.70
2023-04-11T03:54:09.839Z,14.35
2023-04-11T03:56:45.736Z,14.38
2023-04-11T03:59:25.245Z,15.88
2023-04-11T04:02:03.642Z,16.23
2023-04-11T04:04:39.333Z,16.08
2023-04-11T04:07:28.028Z,14.57
2023-04-11T04:10:10.388Z,20.00
2023-04-11T04:12:44.158Z,16.17
2023-04-11T04:15:21.861Z,17.02
2023-04-11T04:17:55.767Z,16.48
2023-04-11T04:20:42.111Z,16.63
2023-04-11T04:23:18.528Z,16.80
2023-04-11T04:26:02.666Z,15.55
2023-04-11T04:28:38.207Z,17.15
2023-04-11T04:31:11.387Z,14.65
2023-04-11T04:33:47.574Z,15.00
2023-04-11T04:36:28.978Z,15.63
2023-04-11T04:39:03.533Z,16.00
2023-04-11T04:41:42.441Z,14.73
2023-04-11T04:44:16.732Z,15.52
2023-04-11T04:46:57.239Z,14.73
2023-04-11T04:49:34.806Z,16.70
2023-04-11T04:52:07.953Z,15.48
2023-04-11T04:54:41.703Z,13.50
2023-04-11T04:57:14.946Z,15.50
2023-04-11T04:59:47.985Z,15.80
2023-04-11T05:02:22.262Z,16.92
2023-04-11T05:04:56.081Z,15.80
2023-04-11T05:07:30.806Z,15.73
2023-04-11T05:10:03.746Z,17.92
2023-04-11T05:12:36.942Z,15.52
2023-04-11T05:15:12.895Z,17.08
2023-04-11T05:17:47.238Z,17.50
2023-04-11T05:20:22.354Z,16.38
2023-04-11T05:22:56.304Z,14.18
2023-04-11T05:25:29.346Z,14.13
2023-04-11T05:28:02.404Z,16.70
2023-04-11T05:30:35.322Z,18.73
2023-04-11T05:33:09.589Z,14.02
2023-04-11T05:35:42.311Z,15.40
2023-04-11T05:38:15.740Z,14.43
2023-04-11T05:40:48.533Z,15.93
2023-04-11T05:43:21.752Z,14.93
2023-04-11T05:45:54.483Z,15.27
2023-04-11T05:48:27.787Z,16.02
2023-04-11T05:51:00.789Z,14.13
2023-04-11T05:53:33.767Z,16.17
2023-04-11T05:56:07.161Z,16.17
2023-04-11T05:58:40.963Z,15.10
2023-04-11T06:01:14.737Z,15.60
2023-04-11T06:03:48.141Z,16.58
2023-04-11T06:06:20.957Z,12.70
2023-04-11T06:08:54.666Z,15.60
2023-04-11T06:11:28.497Z,13.85
2023-04-11T06:14:01.442Z,15.15
2023-04-11T06:16:37.080Z,14.65
2023-04-11T06:19:10.108Z,14.30
2023-04-11T06:21:42.795Z,15.52
2023-04-11T06:24:18.562Z,17.35
2023-04-11T06:26:51.197Z,17.98
2023-04-11T06:29:24.149Z,16.75
2023-04-11T06:31:56.966Z,19.45
2023-04-11T06:34:29.996Z,17.50
2023-04-11T06:37:02.680Z,19.13
2023-04-11T06:39:35.951Z,16.38
2023-04-11T06:42:08.646Z,19.35
2023-04-11T06:44:41.623Z,18.27
2023-04-11T06:47:14.386Z,17.65
2023-04-11T06:49:47.383Z,19.65
2023-04-11T06:52:20.076Z,18.08
2023-04-11T06:54:53.204Z,18.50
2023-04-11T06:57:26.392Z,20.23
2023-04-11T06:59:59.425Z,20.02
2023-04-11T07:02:32.670Z,18.60
2023-04-11T07:05:06.463Z,18.52
2023-04-11T07:07:39.571Z,18.20
2023-04-11T07:10:13.723Z,15.95
2023-04-11T07:12:46.756Z,19.30
2023-04-11T07:15:19.788Z,18.45
2023-04-11T07:17:53.015Z,16.02
2023-04-11T07:20:26.446Z,17.30
2023-04-11T07:22:59.350Z,17.92
2023-04-11T07:25:33.945Z,13.20
2023-04-11T07:28:09.479Z,15.27
2023-04-11T07:30:42.917Z,13.98
2023-04-11T07:33:15.782Z,15.50
2023-04-11T07:35:48.840Z,13.82
2023-04-11T07:38:29.763Z,15.18
2023-04-11T07:41:03.517Z,13.48
2023-04-11T07:43:36.796Z,14.20
2023-04-11T07:46:09.899Z,13.70
2023-04-11T07:48:43.423Z,12.27
2023-04-11T07:51:20.154Z,11.93
2023-04-11T07:53:52.819Z,12.70
2023-04-11T07:56:26.053Z,12.38
2023-04-11T07:58:58.894Z,11.63
2023-04-11T08:01:32.638Z,12.88
2023-04-11T08:04:05.625Z,12.88
2023-04-11T08:06:39.042Z,10.02
2023-04-11T08:09:11.605Z,13.27
2023-04-11T08:11:44.685Z,13.77
2023-04-11T08:14:17.473Z,11.15
2023-04-11T08:16:52.322Z,13.43
2023-04-11T08:19:25.576Z,11.90
2023-04-11T08:21:58.674Z,12.30
2023-04-11T08:24:31.606Z,11.65
2023-04-11T08:27:04.629Z,11.00
2023-04-11T08:29:37.246Z,10.70
2023-04-11T08:32:10.402Z,11.55
2023-04-11T08:34:42.967Z,12.93
2023-04-11T08:37:16.064Z,12.13
2023-04-11T08:39:48.629Z,11.38
2023-04-11T08:42:23.255Z,12.95
2023-04-11T08:44:56.682Z,12.65
2023-04-11T08:47:29.633Z,10.73
2023-04-11T08:50:02.336Z,13.63
2023-04-11T08:52:36.350Z,12.85
2023-04-11T08:55:09.295Z,10.50
2023-04-11T08:57:42.837Z,11.57
2023-04-11T09:00:19.424Z,11.75
2023-04-11T09:03:03.675Z,13.48
2023-04-11T09:05:41.300Z,12.25
2023-04-11T09:08:15.234Z,9.73
2023-04-11T09:10:48.094Z,10.23
2023-04-11T09:13:27.776Z,12.90
2023-04-11T09:16:06.344Z,11.13
2023-04-11T09:18:47.042Z,10.70
2023-04-11T09:21:20.013Z,12.02
2023-04-11T09:23:53.346Z,11.25
2023-04-11T09:26:27.260Z,11.63
2023-04-11T09:29:00.475Z,10.88
2023-04-11T09:31:43.550Z,10.65
2023-04-11T09:34:23.925Z,9.13
2023-04-11T09:36:56.739Z,11.10
2023-04-11T09:39:30.506Z,9.95
2023-04-11T09:42:23.182Z,9.25
2023-04-11T09:44:56.235Z,8.60
2023-04-11T09:47:34.743Z,8.98
2023-04-11T09:50:08.333Z,8.45
2023-04-11T09:52:43.454Z,8.77
2023-04-11T09:55:19.593Z,8.85
2023-04-11T09:57:52.871Z,8.00
2023-04-11T10:00:29.889Z,9.48
2023-04-11T10:03:02.897Z,8.80
2023-04-11T10:05:37.751Z,14.20
2023-04-11T10:08:31.006Z,9.25
2023-04-11T10:11:05.858Z,10.55
2023-04-11T10:13:39.606Z,10.18
2023-04-11T10:16:16.813Z,9.38
2023-04-11T10:18:55.403Z,9.45
2023-04-11T10:21:31.371Z,11.82
2023-04-11T10:24:17.741Z,9.88
2023-04-11T10:27:01.202Z,11.65
2023-04-11T10:29:34.222Z,9.13
2023-04-11T10:32:19.474Z,8.45
2023-04-11T10:34:54.943Z,9.43
2023-04-11T10:37:31.050Z,8.93
2023-04-11T10:40:07.578Z,8.05
2023-04-11T10:42:44.599Z,10.20
2023-04-11T10:45:30.374Z,8.18
2023-04-11T10:48:05.920Z,8.00
2023-04-11T10:50:41.210Z,9.82
2023-04-11T10:53:34.446Z,8.63
2023-04-11T10:56:07.141Z,8.60
2023-04-11T10:58:40.771Z,9.98
2023-04-11T11:01:26.512Z,7.55
2023-04-11T11:04:10.287Z,6.82
2023-04-11T11:06:51.079Z,7.35
2023-04-11T11:09:29.636Z,8.00
2023-04-11T11:12:09.263Z,7.38
2023-04-11T11:14:45.275Z,7.90
2023-04-11T11:17:18.120Z,7.43
2023-04-11T11:19:51.405Z,8.13
2023-04-11T11:22:26.756Z,7.55
2023-04-11T11:25:07.938Z,7.53
2023-04-11T11:27:40.918Z,5.07
2023-04-11T11:30:14.296Z,4.57
2023-04-11T11:32:47.036Z,4.32
2023-04-11T11:35:20.146Z,3.97
2023-04-11T11:37:53.450Z,4.15
2023-04-11T11:40:26.694Z,4.22
2023-04-11T11:42:59.442Z,4.13
2023-04-11T11:45:33.904Z,4.15
2023-04-11T11:48:06.854Z,3.65
2023-04-11T11:50:39.822Z,3.42
2023-04-11T11:53:14.281Z,3.83
2023-04-11T11:55:47.523Z,3.70
2023-04-11T11:58:20.822Z,6.53
2023-04-11T12:00:54.551Z,4.63
2023-04-11T12:03:30.164Z,4.10
2023-04-11T12:06:03.211Z,4.35
2023-04-11T12:08:40.636Z,4.85
2023-04-11T12:11:17.267Z,3.95
2023-04-11T12:13:52.503Z,5.45
2023-04-11T12:16:25.523Z,5.03
2023-04-11T12:18:58.849Z,4.10
2023-04-11T12:21:32.330Z,4.97
2023-04-11T12:24:05.226Z,4.45
2023-04-11T12:26:42.723Z,3.95
2023-04-11T12:29:22.338Z,4.90
2023-04-11T12:31:55.312Z,5.50
2023-04-11T12:34:28.051Z,5.07
2023-04-11T12:37:01.216Z,4.93
2023-04-11T12:39:33.862Z,5.10
2023-04-11T12:42:07.011Z,5.90
2023-04-11T12:44:39.775Z,4.97
2023-04-11T12:47:12.705Z,5.13
2023-04-11T12:49:45.376Z,5.78
2023-04-11T12:52:18.521Z,4.20
2023-04-11T12:54:51.347Z,4.90
2023-04-11T12:57:24.493Z,3.88
2023-04-11T12:59:57.285Z,4.55
2023-04-11T13:02:38.250Z,5.13
2023-04-11T13:05:16.104Z,3.63
2023-04-11T13:07:49.710Z,4.28
2023-04-11T13:10:22.505Z,5.63
2023-04-11T13:12:58.638Z,5.18
2023-04-11T13:15:33.151Z,4.40
2023-04-11T13:18:06.306Z,5.40
2023-04-11T13:20:39.006Z,14.95
2023-04-11T13:23:12.226Z,8.15
2023-04-11T13:25:45.497Z,5.15
2023-04-11T13:28:18.928Z,6.63
2023-04-11T13:30:52.620Z,5.55
2023-04-11T13:33:26.898Z,5.85
2023-04-11T13:35:59.699Z,6.40
2023-04-11T13:38:33.807Z,6.28
2023-04-11T13:41:06.584Z,6.80
2023-04-11T13:43:39.684Z,5.45
2023-04-11T13:46:12.612Z,7.25
2023-04-11T13:48:46.176Z,7.43
2023-04-11T13:51:19.376Z,10.30
2023-04-11T13:53:52.281Z,7.07
2023-04-11T13:56:26.905Z,5.07
2023-04-11T13:59:00.170Z,3.10
2023-04-11T14:01:33.152Z,1.83
2023-04-11T14:04:06.297Z,2.05
2023-04-11T14:06:39.571Z,2.67
2023-04-11T14:09:12.514Z,1.40
2023-04-11T14:11:45.257Z,1.85
2023-04-11T14:14:18.209Z,2.63
2023-04-11T14:16:51.074Z,1.98
2023-04-11T14:19:25.318Z,1.10
2023-04-11T14:21:58.433Z,1.40
2023-04-11T14:24:32.052Z,1.52
2023-04-11T14:27:04.683Z,1.98
2023-04-11T14:29:38.759Z,1.85
2023-04-11T14:32:11.849Z,2.63
2023-04-11T14:34:45.082Z,2.35
2023-04-11T14:37:18.423Z,2.90
2023-04-11T14:39:51.611Z,3.33
2023-04-11T14:42:24.454Z,2.67
2023-04-11T14:44:57.439Z,2.20
2023-04-11T14:47:30.222Z,3.22
2023-04-11T14:50:03.279Z,2.40
2023-04-11T14:52:36.042Z,3.75
2023-04-11T14:55:09.321Z,3.08
2023-04-11T14:57:46.746Z,3.55
2023-04-11T15:00:20.388Z,2.80
2023-04-11T15:02:54.270Z,4.10
2023-04-11T15:05:28.597Z,4.25
2023-04-11T15:08:01.383Z,2.17
2023-04-11T15:10:34.581Z,2.53
2023-04-11T15:13:09.350Z,3.10
2023-04-11T15:15:42.383Z,2.30
2023-04-11T15:18:30.990Z,1.75
2023-04-11T15:21:04.161Z,2.65
2023-04-11T15:23:37.068Z,2.92
2023-04-11T15:26:10.077Z,3.00
2023-04-11T15:28:44.331Z,2.70
2023-04-11T15:31:25.782Z,3.03
2023-04-11T15:34:01.709Z,4.03
2023-04-11T15:36:37.648Z,4.13
2023-04-11T15:39:10.762Z,6.03
2023-04-11T15:41:43.770Z,4.25
2023-04-11T15:44:16.423Z,7.28
2023-04-11T15:46:49.915Z,10.35
2023-04-11T15:49:23.537Z,4.55
2023-04-11T15:51:56.608Z,12.93
2023-04-11T15:54:29.475Z,12.05
2023-04-11T15:57:02.842Z,5.18
2023-04-11T15:59:38.385Z,13.32
2023-04-11T16:02:12.110Z,5.88
2023-04-11T16:04:47.951Z,22.33
2023-04-11T16:07:23.456Z,7.00
2023-04-11T16:09:57.065Z,5.10
2023-04-11T16:12:30.043Z,5.68
2023-04-11T16:15:03.121Z,5.72
2023-04-11T16:17:36.278Z,9.13
2023-04-11T16:20:12.112Z,10.75
2023-04-11T16:22:46.139Z,9.25
2023-04-11T16:25:21.726Z,10.02
2023-04-11T16:27:55.058Z,13.38
2023-04-11T16:30:28.772Z,12.25
2023-04-11T16:33:01.799Z,7.05
2023-04-11T16:35:34.506Z,7.63
2023-04-11T16:38:07.623Z,8.60
2023-04-11T16:40:40.324Z,7.95
2023-04-11T16:43:13.306Z,8.50
2023-04-11T16:45:46.097Z,8.80
2023-04-11T16:48:19.278Z,14.02
2023-04-11T16:50:53.480Z,11.35
2023-04-11T16:53:26.581Z,15.30
2023-04-11T16:55:59.268Z,10.52
2023-04-11T16:58:32.678Z,9.68
2023-04-11T17:01:05.779Z,12.48
2023-04-11T17:03:39.248Z,9.75
2023-04-11T17:06:17.517Z,5.57
2023-04-11T17:08:50.575Z,6.32
2023-04-11T17:11:23.272Z,4.70
2023-04-11T17:13:56.861Z,4.35
2023-04-11T17:16:29.786Z,4.13
2023-04-11T17:19:02.809Z,3.05
2023-04-11T17:21:35.514Z,4.68
2023-04-11T17:24:08.492Z,4.57
2023-04-11T17:26:41.514Z,4.18
2023-04-11T17:29:14.611Z,6.28
2023-04-11T17:31:47.632Z,5.07
2023-04-11T17:34:20.666Z,8.38
2023-04-11T17:36:53.356Z,6.65
2023-04-11T17:39:26.427Z,6.85
2023-04-11T17:41:59.125Z,5.70
2023-04-11T17:44:32.161Z,8.43
2023-04-11T17:47:04.807Z,7.47
2023-04-11T17:49:37.854Z,7.43
2023-04-11T17:52:10.500Z,10.35
2023-04-11T17:54:43.478Z,5.55
2023-04-11T17:57:18.299Z,6.22
2023-04-11T17:59:51.838Z,4.47
2023-04-11T18:02:26.244Z,3.15
2023-04-11T18:05:00.864Z,2.50
2023-04-11T18:07:33.661Z,2.80
2023-04-11T18:10:07.152Z,2.72
2023-04-11T18:12:39.757Z,2.25
2023-04-11T18:15:12.892Z,3.15
2023-04-11T18:17:46.083Z,2.28
2023-04-11T18:20:19.295Z,3.03
2023-04-11T18:22:54.955Z,2.60
2023-04-11T18:25:28.093Z,2.67
2023-04-11T18:28:00.837Z,3.25
2023-04-11T18:30:33.845Z,4.05
2023-04-11T18:33:06.426Z,3.53
2023-04-11T18:35:39.628Z,2.65
2023-04-11T18:38:12.348Z,3.60
2023-04-11T18:40:46.074Z,3.13
2023-04-11T18:43:19.382Z,4.03
2023-04-11T18:45:52.493Z,4.80
2023-04-11T18:48:25.136Z,3.83
2023-04-11T18:50:59.208Z,3.10
2023-04-11T18:53:31.862Z,3.53
2023-04-11T18:56:05.383Z,4.13
2023-04-11T18:58:45.592Z,4.30
2023-04-11T19:01:19.511Z,3.25
2023-04-11T19:03:56.150Z,3.17
2023-04-11T19:06:29.341Z,3.08
2023-04-11T19:09:02.694Z,4.88
2023-04-11T19:11:38.189Z,3.42
2023-04-11T19:14:11.102Z,3.38
2023-04-11T19:16:44.632Z,4.75
2023-04-11T19:19:17.325Z,3.90
2023-04-11T19:21:50.236Z,4.43
2023-04-11T19:24:22.861Z,3.40
2023-04-11T19:26:56.402Z,3.45
2023-04-11T19:29:29.126Z,3.22
2023-04-11T19:32:02.162Z,3.75
2023-04-11T19:34:35.473Z,4.40
2023-04-11T19:37:08.764Z,4.30
2023-04-11T19:39:41.855Z,3.85
2023-04-11T19:42:14.808Z,4.32
2023-04-11T19:44:47.535Z,3.63
2023-04-11T19:47:20.600Z,4.18
2023-04-11T19:49:53.397Z,3.45
2023-04-11T19:52:27.153Z,3.60
2023-04-11T19:54:59.771Z,2.50
2023-04-11T19:57:32.842Z,2.70
2023-04-11T20:00:14.571Z,3.75
2023-04-11T20:02:50.819Z,3.15
2023-04-11T20:05:24.171Z,3.17
2023-04-11T20:07:57.183Z,2.38
2023-04-11T20:10:29.817Z,2.78
2023-04-11T20:13:02.848Z,3.83
2023-04-11T20:15:36.069Z,3.83
2023-04-11T20:18:09.163Z,3.22
2023-04-11T20:20:41.808Z,4.28
2023-04-11T20:23:16.187Z,5.78
2023-04-11T20:25:48.907Z,5.10
2023-04-11T20:28:22.012Z,2.72
2023-04-11T20:30:54.823Z,2.90
2023-04-11T20:33:28.057Z,2.63
2023-04-11T20:36:00.930Z,4.65
2023-04-11T20:38:34.010Z,4.35
2023-04-11T20:41:06.730Z,3.42
2023-04-11T20:43:42.425Z,2.42
2023-04-11T20:46:15.098Z,2.10
2023-04-11T20:48:50.264Z,2.00
2023-04-11T20:51:22.981Z,1.45
2023-04-11T20:53:56.352Z,1.80
2023-04-11T20:56:35.481Z,1.77
2023-04-11T20:59:09.541Z,2.08
2023-04-11T21:01:42.291Z,1.60
2023-04-11T21:04:18.091Z,1.67
2023-04-11T21:06:51.574Z,1.00
2023-04-11T21:09:24.540Z,1.23
2023-04-11T21:11:57.311Z,1.02
2023-04-11T21:14:33.304Z,0.90
2023-04-11T21:17:07.844Z,0.80
2023-04-11T21:19:41.474Z,1.15
2023-04-11T21:22:14.052Z,1.15
2023-04-11T21:24:47.230Z,1.10
2023-04-11T21:27:19.774Z,1.20
2023-04-11T21:29:52.697Z,0.88
2023-04-11T21:32:25.331Z,1.33
2023-04-11T21:34:58.302Z,1.00
2023-04-11T21:37:31.134Z,0.82
2023-04-11T21:40:04.591Z,1.38
2023-04-11T21:42:37.251Z,1.25
2023-04-11T21:45:10.926Z,2.08
2023-04-11T21:47:43.732Z,1.52
2023-04-11T21:50:16.914Z,1.58
2023-04-11T21:52:49.631Z,2.13
2023-04-11T21:55:22.700Z,1.85
2023-04-11T21:57:56.070Z,3.35
2023-04-11T22:00:29.087Z,3.97
2023-04-11T22:03:02.263Z,2.75
2023-04-11T22:05:42.189Z,3.53
2023-04-11T22:08:20.532Z,3.42
2023-04-11T22:10:54.586Z,3.58
2023-04-11T22:13:27.205Z,3.72
2023-04-11T22:16:05.579Z,2.55
2023-04-11T22:18:58.544Z,2.67
2023-04-11T22:21:33.205Z,1.92
2023-04-11T22:24:09.807Z,1.67
2023-04-11T22:26:49.237Z,1.75
2023-04-11T22:29:22.528Z,2.15
2023-04-11T22:31:55.572Z,1.77
2023-04-11T22:34:28.232Z,2.00
2023-04-11T22:37:01.827Z,2.08
2023-04-11T22:39:35.000Z,1.52
2023-04-11T22:42:08.010Z,2.13
2023-04-11T22:44:40.710Z,1.95
2023-04-11T22:47:16.912Z,1.67
2023-04-11T22:49:50.733Z,1.60
2023-04-11T22:52:26.687Z,1.35
2023-04-11T22:54:59.383Z,2.65
2023-04-11T22:57:32.380Z,2.83
2023-04-11T23:00:07.501Z,3.88
2023-04-11T23:02:40.527Z,2.90
2023-04-11T23:05:13.395Z,4.50
2023-04-11T23:07:46.804Z,3.10
2023-04-11T23:10:19.744Z,3.20
2023-04-11T23:12:53.023Z,2.60
2023-04-11T23:15:26.154Z,1.63
2023-04-11T23:17:59.443Z,2.00
2023-04-11T23:20:34.483Z,2.03
2023-04-11T23:23:07.472Z,1.30
2023-04-11T23:25:41.113Z,2.40
2023-04-11T23:28:14.122Z,2.17
2023-04-11T23:30:46.834Z,2.50
2023-04-11T23:33:20.030Z,3.15
2023-04-11T23:35:53.220Z,3.45
2023-04-11T23:38:26.612Z,2.60
2023-04-11T23:40:59.643Z,2.53
2023-04-11T23:43:32.872Z,1.83
2023-04-11T23:46:05.703Z,1.75
2023-04-11T23:48:38.759Z,1.70
2023-04-11T23:51:11.379Z,1.55
2023-04-11T23:53:46.342Z,2.22
2023-04-11T23:56:19.053Z,1.55
2023-04-11T23:58:52.030Z,3.05
